Time;durP1;ratioP1;P1;durP2;ratioP2;P2;SDS_P1;SDS_P2;PMS_P1;PMS_P2;Temp;Humidity;BMP_temperature;BMP_pressure;BME280_temperature;BME280_humidity;BME280_pressure;Samples;Min_cycle;Max_cycle;Signal;HPM_P1;HPM_P2
2022/06/23 00:00:22;;;;;;;14.15;8.10;;;;;;;14.59;67.43;101058.63;5093697;28;20062;-50
2022/06/23 00:02:48;;;;;;;19.80;8.32;;;;;;;14.61;68.67;101056.97;5094216;28;20035;-51
2022/06/23 00:05:18;;;;;;;14.68;8.30;;;;;;;14.58;69.38;101054.31;5093379;28;20525;-50
2022/06/23 00:07:50;;;;;;;13.48;8.65;;;;;;;14.51;70.06;101055.06;5094224;28;20024;-50
2022/06/23 00:10:22;;;;;;;18.27;9.63;;;;;;;14.49;69.64;101050.72;5093834;28;20039;-50
2022/06/23 00:12:47;;;;;;;18.98;10.00;;;;;;;14.44;70.57;101046.31;5093206;28;20016;-50
2022/06/23 00:15:13;;;;;;;21.55;8.93;;;;;;;14.42;70.73;101048.00;5093543;28;20383;-51
2022/06/23 00:17:42;;;;;;;20.13;9.57;;;;;;;14.42;71.34;101055.78;5094070;28;20027;-50
2022/06/23 00:20:19;;;;;;;18.35;9.73;;;;;;;14.37;71.64;101049.63;5092941;28;20024;-50
2022/06/23 00:22:50;;;;;;;15.57;9.40;;;;;;;14.34;72.26;101050.44;5093796;28;20459;-49
2022/06/23 00:25:36;;;;;;;17.30;9.43;;;;;;;14.30;71.38;101046.06;5093379;28;20028;-51
2022/06/23 00:28:02;;;;;;;21.20;10.70;;;;;;;14.23;73.52;101032.13;5093122;28;20020;-50
2022/06/23 00:30:35;;;;;;;18.40;10.25;;;;;;;14.21;74.08;101039.00;5093717;28;20022;-48
2022/06/23 00:33:21;;;;;;;21.52;10.38;;;;;;;14.18;73.03;101038.06;5093529;28;20032;-47
2022/06/23 00:35:49;;;;;;;19.80;11.18;;;;;;;14.09;75.29;101039.66;5093558;28;20125;-50
2022/06/23 00:38:28;;;;;;;23.63;12.05;;;;;;;14.07;75.95;101043.97;5093529;28;20384;-51
2022/06/23 00:40:55;;;;;;;23.48;11.45;;;;;;;14.12;76.48;101044.88;5092905;28;20093;-49
2022/06/23 00:43:21;;;;;;;23.13;12.38;;;;;;;14.21;76.94;101043.31;5093332;28;20036;-50
2022/06/23 00:46:09;;;;;;;24.77;11.80;;;;;;;14.22;75.34;101045.06;5093343;28;20113;-50
2022/06/23 00:48:40;;;;;;;28.23;12.73;;;;;;;14.20;77.76;101042.44;5091932;28;20494;-50
2022/06/23 00:51:15;;;;;;;22.10;12.35;;;;;;;14.21;78.26;101041.59;5093341;28;20055;-48
2022/06/23 00:53:52;;;;;;;27.00;13.27;;;;;;;14.25;78.08;101048.56;5093234;28;20483;-50
2022/06/23 00:56:32;;;;;;;27.20;12.35;;;;;;;14.30;78.10;101043.47;5092718;28;20471;-51
2022/06/23 00:59:09;;;;;;;25.75;13.55;;;;;;;14.27;78.27;101040.84;5092976;28;20124;-47
2022/06/23 01:01:59;;;;;;;24.10;12.20;;;;;;;14.20;77.23;101036.38;5092515;28;20024;-47
2022/06/23 01:04:36;;;;;;;26.73;11.90;;;;;;;14.09;77.92;101039.66;5092942;28;20484;-49
2022/06/23 01:07:20;;;;;;;24.48;13.32;;;;;;;14.04;77.31;101032.66;5092914;28;20070;-50
2022/06/23 01:09:52;;;;;;;21.65;12.90;;;;;;;13.91;79.31;101032.41;5092476;28;20039;-50
2022/06/23 01:12:39;;;;;;;26.80;13.93;;;;;;;13.92;79.68;101028.13;5092880;28;20069;-50
2022/06/23 01:15:21;;;;;;;25.50;13.50;;;;;;;13.97;80.65;101034.25;5092999;28;20028;-50
2022/06/23 01:17:53;;;;;;;23.70;13.90;;;;;;;13.92;81.34;101028.97;5092526;28;20031;-50
2022/06/23 01:20:30;;;;;;;25.40;14.70;;;;;;;13.84;81.21;101022.78;5092873;28;20110;-47
2022/06/23 01:23:08;;;;;;;24.37;14.97;;;;;;;13.80;80.64;101016.69;5092161;28;20016;-50
2022/06/23 01:26:09;;;;;;;29.02;15.77;;;;;;;13.76;81.50;101024.34;5092858;28;20269;-50
2022/06/23 01:28:40;;;;;;;34.50;16.63;;;;;;;13.84;82.75;101022.78;5088636;28;20035;-51
2022/06/23 01:31:27;;;;;;;26.25;16.67;;;;;;;13.78;82.80;101018.34;5092003;28;20035;-51
2022/06/23 01:34:07;;;;;;;30.45;16.25;;;;;;;13.79;82.32;101014.06;5092757;28;20028;-51
2022/06/23 01:36:44;;;;;;;31.10;16.17;;;;;;;13.79;82.61;101020.09;5092405;28;20028;-46
2022/06/23 01:39:27;;;;;;;30.50;17.80;;;;;;;13.83;83.56;101027.09;5092669;28;20388;-47
2022/06/23 01:41:59;;;;;;;37.28;17.13;;;;;;;13.93;84.10;101024.66;5092649;28;20496;-48
2022/06/23 01:44:51;;;;;;;32.47;15.85;;;;;;;13.86;82.34;101025.41;5091831;28;20074;-49
2022/06/23 01:47:23;;;;;;;34.00;17.38;;;;;;;13.92;84.28;101033.31;5092583;28;20032;-51
2022/06/23 01:49:55;;;;;;;36.53;18.70;;;;;;;14.02;84.76;101037.81;5092814;28;20048;-48
2022/06/23 01:52:21;;;;;;;33.83;17.17;;;;;;;14.02;84.17;101030.03;5091885;28;20063;-47
2022/06/23 01:54:54;;;;;;;28.45;17.13;;;;;;;13.94;83.62;101024.72;5092593;28;20042;-47
2022/06/23 01:57:35;;;;;;;36.20;16.60;;;;;;;13.92;82.57;101026.38;5092884;28;20034;-49
2022/06/23 02:00:20;;;;;;;32.50;16.77;;;;;;;13.91;82.43;101026.38;5095487;28;20020;-49
2022/06/23 02:02:53;;;;;;;30.13;16.50;;;;;;;13.81;83.49;101026.19;5096470;28;20031;-49
2022/06/23 02:05:29;;;;;;;30.63;16.25;;;;;;;13.82;83.15;101025.34;5095344;28;20024;-49
2022/06/23 02:08:03;;;;;;;32.50;18.10;;;;;;;13.85;84.19;101029.69;5096391;28;20462;-50
2022/06/23 02:10:36;;;;;;;34.97;17.77;;;;;;;13.85;84.34;101026.25;5096441;28;20103;-49
2022/06/23 02:13:01;;;;;;;32.33;16.98;;;;;;;13.87;84.63;101021.97;5095515;28;20032;-50
2022/06/23 02:15:29;;;;;;;36.07;18.20;;;;;;;13.84;84.50;101020.22;5096110;28;20483;-51
2022/06/23 02:18:01;;;;;;;40.47;19.13;;;;;;;13.89;84.70;101020.28;5096035;28;20040;-50
2022/06/23 02:20:52;;;;;;;34.08;18.25;;;;;;;13.91;83.36;101011.69;5095464;28;20031;-49
2022/06/23 02:23:55;;;;;;;38.80;18.00;;;;;;;13.94;83.24;101013.47;5095784;28;20028;-51
2022/06/23 02:26:30;;;;;;;39.80;18.80;;;;;;;13.91;84.42;101013.41;5095390;28;20043;-49
2022/06/23 02:29:32;;;;;;;32.92;18.52;;;;;;;13.85;83.24;101015.88;5095995;28;20043;-49
2022/06/23 02:32:10;;;;;;;40.03;17.88;;;;;;;13.73;83.64;101019.97;5095892;28;20035;-50
2022/06/23 02:35:00;;;;;;;32.25;19.00;;;;;;;13.73;83.16;101021.72;5095194;28;20114;-50
2022/06/23 02:37:54;;;;;;;34.30;19.23;;;;;;;13.69;83.36;101020.78;5095947;28;20031;-50
2022/06/23 02:40:43;;;;;;;34.75;19.45;;;;;;;13.66;84.63;101007.78;5094865;28;20476;-49
2022/06/23 02:43:11;;;;;;;36.38;18.70;;;;;;;13.61;84.55;101014.59;5095623;28;20107;-50
2022/06/23 02:45:52;;;;;;;;;;;;;;;13.69;80.92;101013.00;5096249;28;20077;-50
2022/06/23 02:49:02;;;;;;;40.60;19.35;;;;;;;13.60;83.14;101012.81;5094736;28;19919;-50
2022/06/23 02:51:56;;;;;;;44.78;20.77;;;;;;;13.58;83.75;101019.69;5095714;28;20165;-51
2022/06/23 02:54:59;;;;;;;35.08;19.67;;;;;;;13.57;83.94;101012.75;5094754;28;20140;-51
2022/06/23 02:57:29;;;;;;;38.78;19.73;;;;;;;13.58;85.08;101009.31;5095104;28;20035;-50
2022/06/23 03:00:10;;;;;;;36.85;20.23;;;;;;;13.62;85.22;101016.31;5095453;28;20024;-49
2022/06/23 03:02:54;;;;;;;39.88;20.40;;;;;;;13.73;85.54;101011.34;5094564;28;20365;-51
2022/06/23 03:05:28;;;;;;;38.58;19.88;;;;;;;13.74;84.59;101011.38;5095194;28;20055;-47
2022/06/23 03:08:24;;;;;;;41.10;20.88;;;;;;;13.74;84.37;101008.78;5095230;28;20032;-50
2022/06/23 03:10:57;;;;;;;41.08;20.92;;;;;;;13.75;84.65;101001.88;5094492;28;20056;-51
2022/06/23 03:13:33;;;;;;;35.10;19.60;;;;;;;13.74;84.60;100997.56;5094998;28;20376;-50
2022/06/23 03:16:21;;;;;;;36.40;20.13;;;;;;;13.71;84.11;100998.38;5094109;28;20027;-50
2022/06/23 03:18:57;;;;;;;45.55;20.90;;;;;;;13.67;84.70;100983.59;5095447;28;20024;-51
2022/06/23 03:21:28;;;;;;;38.80;20.40;;;;;;;13.69;84.70;100987.09;5094962;28;20111;-49
2022/06/23 03:24:11;;;;;;;36.33;21.05;;;;;;;13.68;83.97;100987.94;5094206;28;20032;-50
2022/06/23 03:26:44;;;;;;;44.25;20.90;;;;;;;13.66;84.40;100981.88;5094939;28;20059;-50
2022/06/23 03:29:21;;;;;;;34.90;19.70;;;;;;;13.68;83.93;100975.00;5093969;28;20029;-49
2022/06/23 03:32:05;;;;;;;40.15;20.23;;;;;;;13.67;83.72;100970.66;5094963;28;20023;-51
2022/06/23 03:34:44;;;;;;;42.92;20.13;;;;;;;13.63;83.80;100982.69;5094595;28;20028;-51
2022/06/23 03:37:23;;;;;;;39.42;20.00;;;;;;;13.68;84.11;100995.72;5093684;28;20024;-48
2022/06/23 03:43:00;;;;;;;39.65;19.13;;;;;;;13.68;83.07;100982.75;5094790;28;20043;-51
2022/06/23 03:45:32;;;;;;;38.35;19.55;;;;;;;13.71;83.44;100980.25;5093931;28;20110;-51
2022/06/23 03:48:03;;;;;;;34.50;19.92;;;;;;;13.68;83.33;100985.34;5094281;28;20547;-50
2022/06/23 03:50:51;;;;;;;37.67;20.23;;;;;;;13.77;83.15;100995.00;5093727;28;20032;-51
2022/06/23 03:53:38;;;;;;;38.97;19.90;;;;;;;13.85;82.29;100990.84;5094226;28;20078;-51
2022/06/23 03:56:07;;;;;;;35.88;19.88;;;;;;;13.91;82.49;100997.88;5094436;28;20135;-50
2022/06/23 03:58:42;;;;;;;37.53;19.58;;;;;;;13.95;82.20;100990.16;5093370;28;20067;-49
2022/06/23 04:01:18;;;;;;;38.17;19.63;;;;;;;13.96;82.12;100998.81;5094019;28;20020;-51
2022/06/23 04:03:50;;;;;;;41.72;20.20;;;;;;;14.00;81.72;101005.81;5094177;28;20090;-50
2022/06/23 04:06:22;;;;;;;36.85;19.65;;;;;;;13.99;81.65;100997.16;5093121;28;20035;-50
2022/06/23 04:08:55;;;;;;;38.50;20.13;;;;;;;13.98;82.09;101003.19;5094209;28;20027;-50
2022/06/23 04:14:20;;;;;;;37.75;20.45;;;;;;;13.90;82.54;100996.97;5094219;28;20051;-50
2022/06/23 04:16:49;;;;;;;41.80;20.60;;;;;;;13.94;82.16;100992.72;5094224;28;20038;-51
2022/06/23 04:19:24;;;;;;;39.30;21.65;;;;;;;13.87;83.26;100990.91;5092885;28;20581;-47
2022/06/23 04:21:57;;;;;;;40.33;22.05;;;;;;;13.88;83.54;100990.03;5093903;28;20028;-49
2022/06/23 04:24:25;;;;;;;37.03;21.33;;;;;;;13.88;83.24;101000.38;5093664;28;20031;-48
2022/06/23 04:26:56;;;;;;;40.05;22.08;;;;;;;13.97;81.86;100988.47;5093116;28;20047;-50
2022/06/23 04:29:36;;;;;;;41.42;21.13;;;;;;;14.01;82.05;100989.41;5093768;28;20012;-51
2022/06/23 04:32:10;;;;;;;37.70;21.67;;;;;;;14.02;82.29;100995.47;5093582;28;20036;-49
2022/06/23 04:34:47;;;;;;;39.05;21.58;;;;;;;14.06;82.24;100989.47;5092946;28;20024;-50
2022/06/23 04:37:26;;;;;;;38.85;21.85;;;;;;;14.08;82.33;100985.22;5093406;28;20056;-51
2022/06/23 04:40:04;;;;;;;37.35;21.27;;;;;;;14.11;81.49;100988.72;5092972;28;20024;-47
2022/06/23 04:42:31;;;;;;;39.17;21.70;;;;;;;14.13;82.10;100984.44;5093411;28;20483;-50
2022/06/23 04:45:23;;;;;;;42.70;22.48;;;;;;;14.18;83.40;100991.41;5093250;28;20071;-49
2022/06/23 04:47:53;;;;;;;40.30;21.73;;;;;;;14.21;82.63;100986.28;5092289;28;20028;-49
2022/06/23 04:50:41;;;;;;;42.35;20.23;;;;;;;14.28;81.64;100999.38;5093267;28;20035;-48
2022/06/23 04:53:17;;;;;;;36.03;21.05;;;;;;;14.42;79.78;101004.81;5093185;28;20028;-49
2022/06/23 04:55:59;;;;;;;37.70;20.55;;;;;;;14.47;81.87;100995.38;5092637;28;20065;-51
2022/06/23 04:58:26;;;;;;;34.67;19.17;;;;;;;14.59;79.61;100993.78;5093052;28;20076;-50
2022/06/23 05:00:53;;;;;;;37.70;20.58;;;;;;;14.65;78.38;101004.31;5092275;28;20040;-51
2022/06/23 05:03:22;;;;;;;33.90;19.88;;;;;;;14.70;80.20;100997.47;5092898;28;20023;-51
2022/06/23 05:06:00;;;;;;;40.13;19.13;;;;;;;14.77;79.52;100999.31;5093189;28;20032;-50
2022/06/23 05:08:29;;;;;;;36.05;20.60;;;;;;;14.86;79.28;100997.69;5092221;28;20024;-51
2022/06/23 05:11:04;;;;;;;34.58;20.50;;;;;;;14.93;78.81;100999.53;5093090;28;20024;-50
2022/06/23 05:13:44;;;;;;;37.97;20.45;;;;;;;15.01;79.01;101002.25;5093079;28;20145;-49
2022/06/23 05:16:18;;;;;;;47.10;21.33;;;;;;;15.09;78.89;101005.81;5092071;28;20035;-51
2022/06/23 05:18:47;;;;;;;38.25;19.55;;;;;;;15.14;77.63;100999.84;5093025;28;20030;-49
2022/06/23 05:21:17;;;;;;;30.65;19.25;;;;;;;15.22;76.72;101002.53;5092439;28;20020;-47
2022/06/23 05:24:00;;;;;;;33.15;19.45;;;;;;;15.30;75.86;101005.22;5092237;28;20040;-49
2022/06/23 05:26:29;;;;;;;34.05;18.77;;;;;;;15.38;75.07;101008.78;5092889;28;20468;-48
2022/06/23 05:29:02;;;;;;;37.17;18.98;;;;;;;15.47;74.19;101008.88;5091976;28;20028;-46
2022/06/23 05:31:35;;;;;;;33.67;19.77;;;;;;;15.55;73.66;101002.94;5092671;28;20020;-50
2022/06/23 05:34:16;;;;;;;39.45;20.33;;;;;;;15.63;75.89;100999.56;5094944;28;20040;-48
2022/06/23 05:36:52;;;;;;;31.58;19.25;;;;;;;15.72;75.18;100998.78;5096399;28;20020;-47
2022/06/23 05:39:49;;;;;;;30.65;19.00;;;;;;;15.80;74.06;101002.34;5096806;28;20031;-47
2022/06/23 05:42:24;;;;;;;32.00;18.08;;;;;;;15.90;73.55;100989.47;5096852;28;20028;-50
2022/06/23 05:45:04;;;;;;;33.92;19.38;;;;;;;15.99;73.52;100989.53;5096200;28;20029;-47
2022/06/23 05:47:32;;;;;;;32.15;19.25;;;;;;;16.10;72.79;100989.63;5096638;28;20024;-51
2022/06/23 05:50:07;;;;;;;27.17;17.10;;;;;;;16.20;71.67;100990.59;5095827;28;20012;-51
2022/06/23 05:52:41;;;;;;;30.95;18.05;;;;;;;16.29;71.12;100994.16;5096740;28;20024;-48
2022/06/23 05:55:26;;;;;;;31.55;17.48;;;;;;;16.40;70.29;100990.78;5096558;28;20032;-48
2022/06/23 05:57:55;;;;;;;30.38;17.60;;;;;;;16.52;71.04;100996.06;5095797;28;20119;-50
2022/06/23 06:00:41;;;;;;;35.88;18.58;;;;;;;16.63;70.36;100998.75;5096543;28;20028;-48
2022/06/23 06:03:32;;;;;;;30.40;17.75;;;;;;;16.73;70.83;100997.97;5096399;28;20028;-50
2022/06/23 06:06:01;;;;;;;31.67;17.83;;;;;;;16.86;70.68;100998.03;5095744;28;20028;-48
2022/06/23 06:08:26;;;;;;;32.95;17.33;;;;;;;16.95;70.25;100999.00;5096250;28;20456;-50
2022/06/23 06:10:53;;;;;;;33.65;17.67;;;;;;;17.05;68.30;100999.88;5095941;28;20545;-49
2022/06/23 06:13:25;;;;;;;31.63;16.73;;;;;;;17.16;67.19;101004.28;5096066;28;20030;-49
2022/06/23 06:15:53;;;;;;;30.55;18.08;;;;;;;17.25;66.84;100999.16;5096555;28;20040;-49
2022/06/23 06:18:28;;;;;;;30.02;17.27;;;;;;;17.35;66.33;100987.00;5095093;28;20407;-50
2022/06/23 06:20:57;;;;;;;28.00;17.30;;;;;;;17.44;65.25;100995.75;5096301;28;20028;-50
2022/06/23 06:23:32;;;;;;;34.25;17.83;;;;;;;17.56;65.82;100996.66;5095880;28;20104;-50
2022/06/23 06:25:58;;;;;;;36.85;18.60;;;;;;;17.68;65.63;100993.22;5095140;28;20032;-50
2022/06/23 06:28:29;;;;;;;32.13;17.95;;;;;;;17.78;65.31;100998.44;5096174;28;20034;-50
2022/06/23 06:31:22;;;;;;;36.38;18.85;;;;;;;17.88;66.23;100991.50;5096272;28;20035;-51
2022/06/23 06:34:09;;;;;;;32.28;18.95;;;;;;;18.00;66.38;100990.69;5095101;28;20056;-51
2022/06/23 06:36:40;;;;;;;31.70;17.80;;;;;;;18.10;66.75;100983.72;5096042;28;20039;-48
2022/06/23 06:39:28;;;;;;;31.92;18.25;;;;;;;18.20;66.65;100990.69;5095213;28;20110;-51
2022/06/23 06:42:14;;;;;;;32.15;18.08;;;;;;;18.35;65.86;100995.03;5095698;28;20027;-51
2022/06/23 06:44:44;;;;;;;36.88;18.95;;;;;;;18.49;64.94;100991.53;5093868;28;20071;-50
2022/06/23 06:47:17;;;;;;;37.95;19.30;;;;;;;18.59;64.91;101003.72;5094756;28;20020;-51
2022/06/23 06:49:44;;;;;;;31.58;18.70;;;;;;;18.76;65.98;101001.97;5095857;28;20032;-50
2022/06/23 06:52:09;;;;;;;30.27;17.40;;;;;;;18.85;63.97;101005.41;5095386;28;20024;-51
2022/06/23 06:54:49;;;;;;;32.53;17.52;;;;;;;18.97;63.43;101000.22;5094837;28;20072;-50
2022/06/23 06:57:35;;;;;;;37.97;18.27;;;;;;;19.07;64.56;100999.31;5095169;28;20043;-50
2022/06/23 07:00:07;;;;;;;35.30;18.73;;;;;;;19.23;64.42;101001.88;5095419;28;20032;-51
2022/06/23 07:02:40;;;;;;;34.53;17.17;;;;;;;19.36;63.46;100998.31;5095447;28;20020;-49
2022/06/23 07:05:26;;;;;;;30.90;17.05;;;;;;;19.44;63.54;100995.66;5095139;28;20024;-51
2022/06/23 07:08:13;;;;;;;29.27;18.02;;;;;;;19.55;64.47;100990.41;5094737;28;20032;-50
2022/06/23 07:10:52;;;;;;;32.25;17.42;;;;;;;19.66;62.80;100996.41;5095315;28;20059;-50
2022/06/23 07:13:56;;;;;;;30.90;17.63;;;;;;;19.81;63.28;100997.22;5094842;28;20055;-48
2022/06/23 07:16:51;;;;;;;33.70;17.08;;;;;;;19.96;62.11;100997.16;5043246;28;20474;-50
2022/06/23 07:19:42;;;;;;;38.00;18.23;;;;;;;20.17;60.34;101014.44;5094957;28;20027;-51
2022/06/23 07:22:23;;;;;;;27.55;16.55;;;;;;;20.29;60.44;101005.63;5093425;28;20048;-51
2022/06/23 07:25:04;;;;;;;29.83;16.23;;;;;;;20.44;61.04;101003.75;5094998;28;20035;-51
2022/06/23 07:27:42;;;;;;;39.80;17.33;;;;;;;20.59;60.77;101006.22;5094959;28;20024;-51
2022/06/23 07:30:19;;;;;;;34.03;16.80;;;;;;;20.74;60.37;101007.88;5093766;28;20028;-50
2022/06/23 07:32:50;;;;;;;33.20;16.92;;;;;;;20.93;59.73;100995.44;5095091;28;20034;-52
2022/06/23 07:35:37;;;;;;;36.97;17.40;;;;;;;21.12;60.39;101005.72;5093976;28;20470;-51
2022/06/23 07:38:20;;;;;;;34.67;18.92;;;;;;;21.26;59.48;100998.53;5094540;28;20063;-51
2022/06/23 07:40:48;;;;;;;35.03;17.75;;;;;;;21.38;58.95;100987.91;5094534;28;20472;-49
2022/06/23 07:43:41;;;;;;;29.10;17.65;;;;;;;21.56;60.53;100992.97;5093587;28;20027;-50
2022/06/23 07:46:06;;;;;;;37.08;16.48;;;;;;;21.71;59.08;100990.97;5094326;28;20077;-50
2022/06/23 07:48:34;;;;;;;34.25;17.90;;;;;;;21.87;59.82;100993.38;5094514;28;20032;-51
2022/06/23 07:51:03;;;;;;;31.42;17.33;;;;;;;21.97;59.41;100987.09;5093518;28;20099;-52
2022/06/23 07:53:33;;;;;;;37.35;17.60;;;;;;;22.10;58.59;100992.16;5094448;28;20032;-51
2022/06/23 07:55:58;;;;;;;30.92;18.05;;;;;;;22.20;59.33;100984.09;5093979;28;20051;-50
2022/06/23 07:58:34;;;;;;;31.13;17.20;;;;;;;22.33;58.51;100991.78;5093134;28;20079;-49
2022/06/23 08:01:24;;;;;;;34.38;19.08;;;;;;;22.41;58.20;100997.78;5094215;28;20027;-50
2022/06/23 08:04:03;;;;;;;33.45;18.27;;;;;;;22.51;58.30;100990.63;5093345;28;20032;-50
2022/06/23 08:06:30;;;;;;;34.83;17.27;;;;;;;22.60;59.62;100992.22;5094265;28;20031;-51
2022/06/23 08:09:00;;;;;;;39.22;17.88;;;;;;;22.81;58.69;100986.59;5093949;28;20464;-52
2022/06/23 08:14:33;;;;;;;31.95;18.42;;;;;;;23.02;57.93;100993.16;5094124;28;20043;-51
2022/06/23 08:17:03;;;;;;;33.70;18.50;;;;;;;23.05;56.71;100988.72;5093793;28;20467;-50
2022/06/23 08:19:40;;;;;;;34.53;17.77;;;;;;;23.15;59.98;100980.69;5093023;28;20418;-52
2022/06/23 08:22:15;;;;;;;32.67;16.30;;;;;;;23.37;58.86;100985.50;5093796;28;20364;-50
2022/06/23 08:24:43;;;;;;;36.20;17.85;;;;;;;23.51;56.90;100986.03;5093012;28;20045;-50
2022/06/23 08:27:12;;;;;;;39.58;16.45;;;;;;;23.61;58.06;100984.06;5093529;28;20036;-48
2022/06/23 08:29:53;;;;;;;26.23;15.05;;;;;;;23.78;58.42;100980.19;5093836;28;20083;-49
2022/06/23 08:32:19;;;;;;;34.50;17.23;;;;;;;23.90;56.84;100973.75;5092673;28;20016;-47
2022/06/23 08:35:07;;;;;;;30.63;16.13;;;;;;;24.03;56.71;100976.97;5093516;28;20028;-51
2022/06/23 08:37:38;;;;;;;32.72;15.82;;;;;;;24.09;55.84;100979.47;5093540;28;20384;-51
2022/06/23 08:40:22;;;;;;;31.83;15.20;;;;;;;24.25;56.15;100986.09;5092725;28;20020;-50
2022/06/23 08:42:59;;;;;;;33.53;14.98;;;;;;;24.37;56.18;100978.78;5093507;28;20036;-51
2022/06/23 08:45:43;;;;;;;;;;;;;;;24.45;56.54;100976.81;5093761;28;20028;-49
2022/06/23 08:48:18;;;;;;;28.00;13.40;;;;;;;24.62;54.79;100979.88;5093395;28;19912;-48
2022/06/23 08:50:50;;;;;;;27.52;13.35;;;;;;;24.70;54.14;100981.44;5093524;28;20028;-48
2022/06/23 08:53:33;;;;;;;27.98;13.18;;;;;;;24.84;55.34;100976.66;5092419;28;20032;-51
2022/06/23 08:56:15;;;;;;;26.13;13.38;;;;;;;24.99;55.20;100978.84;5093384;28;20032;-51
2022/06/23 08:58:47;;;;;;;26.42;11.77;;;;;;;25.22;55.38;100977.34;5093274;28;20039;-51
2022/06/23 09:01:24;;;;;;;33.45;13.43;;;;;;;25.34;54.50;100975.25;5092238;28;20016;-49
2022/06/23 09:03:57;;;;;;;32.60;11.73;;;;;;;25.61;55.19;100966.50;5093076;28;20028;-49
2022/06/23 09:06:47;;;;;;;34.28;12.27;;;;;;;25.81;53.81;100972.94;5093268;28;20024;-50
2022/06/23 09:09:21;;;;;;;31.25;12.77;;;;;;;25.94;52.45;100974.25;5092224;28;20039;-51
2022/06/23 09:12:16;;;;;;;31.73;12.43;;;;;;;26.00;51.56;100967.06;5093071;28;20106;-50
2022/06/23 09:14:53;;;;;;;26.67;12.20;;;;;;;26.04;51.51;100963.38;5092548;28;20043;-52
2022/06/23 09:17:37;;;;;;;25.00;11.45;;;;;;;26.04;52.01;100960.75;5093033;28;20047;-48
2022/06/23 09:20:18;;;;;;;24.50;10.63;;;;;;;26.14;51.52;100962.19;5092748;28;20472;-52
2022/06/23 09:23:12;;;;;;;29.58;12.25;;;;;;;26.22;50.89;100961.94;5092123;28;20032;-50
2022/06/23 09:25:59;;;;;;;36.40;11.57;;;;;;;26.22;51.02;100954.91;5092907;28;20383;-52
2022/06/23 09:28:41;;;;;;;27.27;10.40;;;;;;;26.31;51.25;100960.75;5092096;28;20077;-51
2022/06/23 09:31:29;;;;;;;22.52;9.00;;;;;;;26.40;50.23;100957.81;5092569;28;20020;-51
2022/06/23 09:33:54;;;;;;;19.23;7.07;;;;;;;26.53;49.05;100956.44;5092843;28;20039;-49
2022/06/23 09:36:43;;;;;;;25.93;8.10;;;;;;;26.59;49.50;100953.59;5092060;28;20024;-51
2022/06/23 09:39:31;;;;;;;22.67;7.20;;;;;;;26.78;49.65;100955.63;5092678;28;20032;-50
2022/06/23 09:42:24;;;;;;;24.50;7.85;;;;;;;26.81;49.44;100947.56;5091824;28;20467;-48
2022/06/23 09:45:15;;;;;;;24.58;8.10;;;;;;;26.97;50.15;100954.91;5092762;28;20035;-48
2022/06/23 09:48:14;;;;;;;20.50;7.85;;;;;;;27.12;49.42;100949.06;5092657;28;20435;-52
2022/06/23 09:50:55;;;;;;;17.98;7.25;;;;;;;27.19;47.71;100950.56;5092169;28;20024;-48
2022/06/23 09:53:45;;;;;;;18.35;7.10;;;;;;;27.33;48.77;100947.34;5092594;28;20028;-48
2022/06/23 09:56:13;;;;;;;27.77;7.53;;;;;;;27.46;47.45;100934.53;5091495;28;20028;-50
2022/06/23 09:58:59;;;;;;;27.85;6.90;;;;;;;27.62;47.48;100937.44;5092374;28;20048;-50
2022/06/23 10:01:36;;;;;;;41.58;9.15;;;;;;;27.74;48.19;100936.91;5092418;28;20499;-50
2022/06/23 10:04:28;;;;;;;34.03;7.75;;;;;;;27.98;46.68;100933.31;5091608;28;20067;-51
2022/06/23 10:07:11;;;;;;;17.98;7.57;;;;;;;28.16;47.23;100942.31;5084077;28;20116;-47
2022/06/23 10:09:39;;;;;;;20.55;6.90;;;;;;;28.29;46.22;100932.03;5092643;28;20028;-51
2022/06/23 10:12:28;;;;;;;27.67;7.95;;;;;;;28.46;46.46;100936.59;5091402;28;20494;-50
2022/06/23 10:15:12;;;;;;;32.40;7.85;;;;;;;28.70;46.36;100932.91;5092448;28;20032;-50
2022/06/23 10:18:01;;;;;;;28.88;7.53;;;;;;;29.08;45.46;100940.03;5091911;28;20019;-50
2022/06/23 10:20:47;;;;;;;21.95;7.20;;;;;;;29.06;45.62;100941.88;5094948;28;20024;-51
2022/06/23 10:23:47;;;;;;;20.10;7.78;;;;;;;29.52;44.46;100931.75;5095969;28;20024;-49
2022/06/23 10:26:33;;;;;;;26.92;7.80;;;;;;;30.55;43.72;100927.53;5094989;28;20369;-51
2022/06/23 10:29:03;;;;;;;27.20;7.55;;;;;;;31.16;41.34;100933.13;5096009;28;20031;-51
2022/06/23 10:31:47;;;;;;;19.85;6.88;;;;;;;31.56;38.77;100930.03;5095222;28;20069;-51
2022/06/23 10:34:37;;;;;;;21.38;7.93;;;;;;;32.15;40.68;100936.31;5095806;28;20028;-51
2022/06/23 10:37:40;;;;;;;27.48;8.13;;;;;;;33.16;38.36;100925.66;5095820;28;20121;-52
2022/06/23 10:40:43;;;;;;;24.10;7.22;;;;;;;34.53;36.23;100924.66;5095167;28;20028;-52
2022/06/23 10:43:11;;;;;;;28.88;7.93;;;;;;;34.25;33.85;100924.72;5081924;28;20076;-53
2022/06/23 10:45:39;;;;;;;23.92;8.35;;;;;;;33.99;34.20;100918.50;5095053;28;20026;-52
2022/06/23 10:48:28;;;;;;;24.27;7.18;;;;;;;33.91;35.73;100920.84;5095562;28;20111;-52
2022/06/23 10:51:28;;;;;;;23.05;7.90;;;;;;;33.38;36.77;100918.13;5095775;28;20020;-52
2022/06/23 10:54:20;;;;;;;25.15;8.30;;;;;;;32.58;37.08;100908.00;5094967;28;20032;-52
2022/06/23 10:56:56;;;;;;;27.80;8.38;;;;;;;33.13;37.59;100904.50;5095535;28;20527;-52
2022/06/23 10:59:32;;;;;;;22.52;8.38;;;;;;;33.75;36.90;100915.63;5094568;28;20052;-51
2022/06/23 11:02:35;;;;;;;27.38;8.52;;;;;;;33.30;36.62;100910.59;5095366;28;20161;-51
2022/06/23 11:05:20;;;;;;;25.60;8.82;;;;;;;32.58;37.45;100908.00;5095006;28;20491;-52
2022/06/23 11:08:23;;;;;;;22.77;9.30;;;;;;;33.32;37.81;100895.31;5094772;28;20031;-49
2022/06/23 11:11:19;;;;;;;31.50;9.18;;;;;;;33.96;35.88;100902.69;5095138;28;20115;-52
2022/06/23 11:14:12;;;;;;;19.83;8.40;;;;;;;34.49;35.30;100907.09;5094647;28;20035;-52
2022/06/23 11:16:51;;;;;;;24.38;9.25;;;;;;;34.65;34.73;100904.19;5095286;28;20028;-52
2022/06/23 11:19:42;;;;;;;22.83;9.20;;;;;;;35.05;33.34;100898.66;5094785;28;20460;-52
2022/06/23 11:22:21;;;;;;;29.30;10.10;;;;;;;35.30;32.95;100895.00;5094317;28;20059;-53
2022/06/23 11:24:57;;;;;;;23.38;9.38;;;;;;;35.28;32.58;100902.31;5094886;28;20425;-53
2022/06/23 11:27:37;;;;;;;22.88;8.70;;;;;;;34.53;34.72;100903.25;5094322;28;20039;-52
2022/06/23 11:30:27;;;;;;;19.50;8.32;;;;;;;34.62;35.23;100905.25;5094772;28;20054;-52
2022/06/23 11:33:26;;;;;;;27.95;7.15;;;;;;;35.00;32.23;100893.63;5094501;28;20078;-52
2022/06/23 11:36:17;;;;;;;21.58;6.40;;;;;;;35.31;31.49;100895.88;5094003;28;20118;-52
2022/06/23 11:38:55;;;;;;;18.15;6.72;;;;;;;35.59;30.46;100887.47;5094801;28;20391;-52
2022/06/23 11:41:39;;;;;;;20.42;6.57;;;;;;;35.24;31.62;100884.75;5094726;28;20036;-52
2022/06/23 11:44:18;;;;;;;19.10;6.65;;;;;;;35.11;30.00;100882.13;5094370;28;20422;-52
2022/06/23 11:46:51;;;;;;;22.27;6.10;;;;;;;34.79;31.30;100890.66;5094572;28;20471;-52
2022/06/23 11:49:39;;;;;;;21.63;6.82;;;;;;;34.03;32.11;100885.25;5093542;28;20059;-51
2022/06/23 11:52:18;;;;;;;18.73;6.78;;;;;;;32.85;34.04;100883.19;5094476;28;20028;-51
2022/06/23 11:55:02;;;;;;;16.85;5.82;;;;;;;33.98;33.76;100879.34;5094314;28;20028;-50
2022/06/23 11:57:49;;;;;;;19.02;6.28;;;;;;;34.83;32.07;100875.22;5093522;28;20032;-51
2022/06/23 12:00:18;;;;;;;18.13;6.22;;;;;;;35.53;30.53;100868.31;5093991;28;20895;-51
2022/06/23 12:03:14;;;;;;;14.52;6.00;;;;;;;36.37;31.00;100871.72;5093552;28;20048;-52
2022/06/23 12:06:23;;;;;;;18.90;6.85;;;;;;;36.54;29.69;100872.16;5094433;28;20043;-51
2022/06/23 12:09:10;;;;;;;21.38;6.78;;;;;;;35.83;31.07;100878.53;5070505;28;20081;-52
2022/06/23 12:11:36;;;;;;;23.65;6.13;;;;;;;35.75;31.00;100871.09;5093254;28;20024;-50
2022/06/23 12:14:07;;;;;;;17.30;6.15;;;;;;;36.48;29.73;100861.94;5094115;28;20043;-52